sensor_id;sensor_type;location;lat;lon;timestamp;P1;durP1;ratioP1;P2;durP2;ratioP2
75928;SDS011;64606;44.062;2.986;2024-03-17T00:00:07;3.58;;;2.58;;
75928;SDS011;64606;44.062;2.986;2024-03-17T00:02:39;4.15;;;3.00;;
75928;SDS011;64606;44.062;2.986;2024-03-17T00:05:06;5.95;;;3.00;;
75928;SDS011;64606;44.062;2.986;2024-03-17T00:07:32;4.13;;;2.50;;
75928;SDS011;64606;44.062;2.986;2024-03-17T00:09:58;3.05;;;2.42;;
75928;SDS011;64606;44.062;2.986;2024-03-17T00:12:24;3.03;;;2.28;;
75928;SDS011;64606;44.062;2.986;2024-03-17T00:14:51;2.90;;;2.08;;
75928;SDS011;64606;44.062;2.986;2024-03-17T00:17:17;3.45;;;2.42;;
75928;SDS011;64606;44.062;2.986;2024-03-17T00:19:45;2.65;;;2.20;;
75928;SDS011;64606;44.062;2.986;2024-03-17T00:22:12;3.70;;;2.38;;
75928;SDS011;64606;44.062;2.986;2024-03-17T00:24:42;2.90;;;2.20;;
75928;SDS011;64606;44.062;2.986;2024-03-17T00:27:09;3.10;;;2.15;;
75928;SDS011;64606;44.062;2.986;2024-03-17T00:29:36;3.30;;;2.10;;
75928;SDS011;64606;44.062;2.986;2024-03-17T00:32:03;4.10;;;2.45;;
75928;SDS011;64606;44.062;2.986;2024-03-17T00:34:29;3.15;;;2.00;;
75928;SDS011;64606;44.062;2.986;2024-03-17T00:36:55;3.85;;;2.20;;
75928;SDS011;64606;44.062;2.986;2024-03-17T00:39:21;3.42;;;2.20;;
75928;SDS011;64606;44.062;2.986;2024-03-17T00:41:48;2.78;;;1.90;;
75928;SDS011;64606;44.062;2.986;2024-03-17T00:44:14;2.20;;;1.77;;
75928;SDS011;64606;44.062;2.986;2024-03-17T00:46:40;2.95;;;1.83;;
75928;SDS011;64606;44.062;2.986;2024-03-17T00:49:07;2.55;;;1.80;;
75928;SDS011;64606;44.062;2.986;2024-03-17T00:51:35;2.70;;;1.95;;
75928;SDS011;64606;44.062;2.986;2024-03-17T00:54:02;2.47;;;1.75;;
75928;SDS011;64606;44.062;2.986;2024-03-17T00:56:28;2.25;;;1.65;;
75928;SDS011;64606;44.062;2.986;2024-03-17T00:58:54;2.00;;;1.65;;
75928;SDS011;64606;44.062;2.986;2024-03-17T01:01:20;1.80;;;1.50;;
75928;SDS011;64606;44.062;2.986;2024-03-17T01:03:47;2.05;;;1.58;;
75928;SDS011;64606;44.062;2.986;2024-03-17T01:06:13;2.90;;;1.60;;
75928;SDS011;64606;44.062;2.986;2024-03-17T01:08:39;2.45;;;1.70;;
75928;SDS011;64606;44.062;2.986;2024-03-17T01:11:05;4.03;;;2.00;;
75928;SDS011;64606;44.062;2.986;2024-03-17T01:13:34;2.65;;;1.70;;
75928;SDS011;64606;44.062;2.986;2024-03-17T01:16:02;2.97;;;1.70;;
75928;SDS011;64606;44.062;2.986;2024-03-17T01:18:29;2.85;;;1.92;;
75928;SDS011;64606;44.062;2.986;2024-03-17T01:20:55;2.30;;;1.75;;
75928;SDS011;64606;44.062;2.986;2024-03-17T01:23:21;2.42;;;1.95;;
75928;SDS011;64606;44.062;2.986;2024-03-17T01:25:47;2.45;;;1.60;;
75928;SDS011;64606;44.062;2.986;2024-03-17T01:28:13;3.25;;;1.70;;
75928;SDS011;64606;44.062;2.986;2024-03-17T01:30:40;2.33;;;1.70;;
75928;SDS011;64606;44.062;2.986;2024-03-17T01:33:06;2.33;;;1.40;;
75928;SDS011;64606;44.062;2.986;2024-03-17T01:35:33;3.05;;;1.65;;
75928;SDS011;64606;44.062;2.986;2024-03-17T01:37:59;1.80;;;1.50;;
75928;SDS011;64606;44.062;2.986;2024-03-17T01:40:26;1.85;;;1.45;;
75928;SDS011;64606;44.062;2.986;2024-03-17T01:42:52;2.85;;;1.70;;
75928;SDS011;64606;44.062;2.986;2024-03-17T01:47:44;1.73;;;1.38;;
75928;SDS011;64606;44.062;2.986;2024-03-17T01:50:11;2.08;;;1.50;;
75928;SDS011;64606;44.062;2.986;2024-03-17T01:52:38;2.10;;;1.40;;
75928;SDS011;64606;44.062;2.986;2024-03-17T01:55:05;2.45;;;1.52;;
75928;SDS011;64606;44.062;2.986;2024-03-17T01:57:32;1.70;;;1.30;;
75928;SDS011;64606;44.062;2.986;2024-03-17T01:59:58;1.92;;;1.35;;
75928;SDS011;64606;44.062;2.986;2024-03-17T02:02:25;2.58;;;1.60;;
75928;SDS011;64606;44.062;2.986;2024-03-17T02:04:51;2.08;;;1.55;;
75928;SDS011;64606;44.062;2.986;2024-03-17T02:07:18;2.03;;;1.25;;
75928;SDS011;64606;44.062;2.986;2024-03-17T02:09:44;3.30;;;1.33;;
75928;SDS011;64606;44.062;2.986;2024-03-17T02:12:10;1.85;;;1.48;;
75928;SDS011;64606;44.062;2.986;2024-03-17T02:14:37;1.90;;;1.42;;
75928;SDS011;64606;44.062;2.986;2024-03-17T02:17:03;2.10;;;1.27;;
75928;SDS011;64606;44.062;2.986;2024-03-17T02:19:29;2.63;;;1.40;;
75928;SDS011;64606;44.062;2.986;2024-03-17T02:21:56;1.90;;;1.40;;
75928;SDS011;64606;44.062;2.986;2024-03-17T02:24:22;1.83;;;1.30;;
75928;SDS011;64606;44.062;2.986;2024-03-17T02:26:48;2.70;;;1.40;;
75928;SDS011;64606;44.062;2.986;2024-03-17T02:29:15;1.95;;;1.23;;
75928;SDS011;64606;44.062;2.986;2024-03-17T02:31:41;1.60;;;1.20;;
75928;SDS011;64606;44.062;2.986;2024-03-17T02:34:07;1.67;;;1.30;;
75928;SDS011;64606;44.062;2.986;2024-03-17T02:36:33;2.17;;;1.20;;
75928;SDS011;64606;44.062;2.986;2024-03-17T02:38:59;1.83;;;1.30;;
75928;SDS011;64606;44.062;2.986;2024-03-17T02:41:44;2.17;;;1.13;;
75928;SDS011;64606;44.062;2.986;2024-03-17T02:44:11;1.52;;;1.20;;
75928;SDS011;64606;44.062;2.986;2024-03-17T02:46:37;1.88;;;1.10;;
75928;SDS011;64606;44.062;2.986;2024-03-17T02:49:03;2.00;;;1.10;;
75928;SDS011;64606;44.062;2.986;2024-03-17T02:51:30;1.70;;;1.13;;
75928;SDS011;64606;44.062;2.986;2024-03-17T02:53:56;2.40;;;1.30;;
75928;SDS011;64606;44.062;2.986;2024-03-17T02:56:24;1.58;;;1.15;;
75928;SDS011;64606;44.062;2.986;2024-03-17T02:58:51;2.10;;;1.20;;
75928;SDS011;64606;44.062;2.986;2024-03-17T03:01:17;2.05;;;1.25;;
75928;SDS011;64606;44.062;2.986;2024-03-17T03:03:44;1.40;;;1.10;;
75928;SDS011;64606;44.062;2.986;2024-03-17T03:06:10;1.58;;;1.13;;
75928;SDS011;64606;44.062;2.986;2024-03-17T03:08:38;2.45;;;0.90;;
75928;SDS011;64606;44.062;2.986;2024-03-17T03:11:06;1.60;;;1.10;;
75928;SDS011;64606;44.062;2.986;2024-03-17T03:13:32;1.92;;;1.20;;
75928;SDS011;64606;44.062;2.986;2024-03-17T03:15:58;1.65;;;1.02;;
75928;SDS011;64606;44.062;2.986;2024-03-17T03:18:25;2.50;;;1.20;;
75928;SDS011;64606;44.062;2.986;2024-03-17T03:20:51;2.00;;;1.20;;
75928;SDS011;64606;44.062;2.986;2024-03-17T03:23:18;1.30;;;0.82;;
75928;SDS011;64606;44.062;2.986;2024-03-17T03:25:44;1.65;;;1.20;;
75928;SDS011;64606;44.062;2.986;2024-03-17T03:28:12;1.70;;;1.20;;
75928;SDS011;64606;44.062;2.986;2024-03-17T03:30:39;1.52;;;1.20;;
75928;SDS011;64606;44.062;2.986;2024-03-17T03:33:05;1.98;;;1.10;;
75928;SDS011;64606;44.062;2.986;2024-03-17T03:35:32;1.55;;;1.10;;
75928;SDS011;64606;44.062;2.986;2024-03-17T03:37:58;1.73;;;1.00;;
75928;SDS011;64606;44.062;2.986;2024-03-17T03:40:26;1.30;;;1.10;;
75928;SDS011;64606;44.062;2.986;2024-03-17T03:42:52;1.50;;;1.08;;
75928;SDS011;64606;44.062;2.986;2024-03-17T03:45:18;2.63;;;1.10;;
75928;SDS011;64606;44.062;2.986;2024-03-17T03:47:49;1.73;;;1.20;;
75928;SDS011;64606;44.062;2.986;2024-03-17T03:50:17;1.60;;;0.90;;
75928;SDS011;64606;44.062;2.986;2024-03-17T03:52:43;2.55;;;1.33;;
75928;SDS011;64606;44.062;2.986;2024-03-17T03:55:11;1.52;;;1.10;;
75928;SDS011;64606;44.062;2.986;2024-03-17T03:57:43;1.30;;;1.10;;
75928;SDS011;64606;44.062;2.986;2024-03-17T04:00:15;1.70;;;1.10;;
75928;SDS011;64606;44.062;2.986;2024-03-17T04:02:44;1.70;;;1.20;;
75928;SDS011;64606;44.062;2.986;2024-03-17T04:05:10;1.50;;;1.10;;
75928;SDS011;64606;44.062;2.986;2024-03-17T04:07:36;1.88;;;1.10;;
75928;SDS011;64606;44.062;2.986;2024-03-17T04:10:03;1.58;;;1.20;;
75928;SDS011;64606;44.062;2.986;2024-03-17T04:12:29;2.10;;;1.33;;
75928;SDS011;64606;44.062;2.986;2024-03-17T04:14:59;1.52;;;0.98;;
75928;SDS011;64606;44.062;2.986;2024-03-17T04:17:25;3.33;;;1.20;;
75928;SDS011;64606;44.062;2.986;2024-03-17T04:19:52;1.67;;;1.30;;
75928;SDS011;64606;44.062;2.986;2024-03-17T04:22:19;1.92;;;1.10;;
75928;SDS011;64606;44.062;2.986;2024-03-17T04:24:47;1.48;;;1.05;;
75928;SDS011;64606;44.062;2.986;2024-03-17T04:27:18;1.65;;;1.00;;
75928;SDS011;64606;44.062;2.986;2024-03-17T04:29:46;1.88;;;1.10;;
75928;SDS011;64606;44.062;2.986;2024-03-17T04:32:13;2.42;;;1.13;;
75928;SDS011;64606;44.062;2.986;2024-03-17T04:34:39;0.73;;;0.70;;
75928;SDS011;64606;44.062;2.986;2024-03-17T04:37:05;0.82;;;0.80;;
75928;SDS011;64606;44.062;2.986;2024-03-17T04:39:31;2.42;;;1.20;;
75928;SDS011;64606;44.062;2.986;2024-03-17T04:41:58;1.80;;;1.20;;
75928;SDS011;64606;44.062;2.986;2024-03-17T04:44:25;1.52;;;1.08;;
75928;SDS011;64606;44.062;2.986;2024-03-17T04:46:51;1.70;;;0.82;;
75928;SDS011;64606;44.062;2.986;2024-03-17T04:49:17;3.45;;;1.00;;
75928;SDS011;64606;44.062;2.986;2024-03-17T04:51:44;1.17;;;0.90;;
75928;SDS011;64606;44.062;2.986;2024-03-17T04:54:10;2.90;;;1.10;;
75928;SDS011;64606;44.062;2.986;2024-03-17T04:56:36;1.85;;;1.08;;
75928;SDS011;64606;44.062;2.986;2024-03-17T04:59:03;1.05;;;0.90;;
75928;SDS011;64606;44.062;2.986;2024-03-17T05:01:30;1.60;;;1.20;;
75928;SDS011;64606;44.062;2.986;2024-03-17T05:04:01;4.63;;;1.20;;
75928;SDS011;64606;44.062;2.986;2024-03-17T05:06:28;1.65;;;1.10;;
75928;SDS011;64606;44.062;2.986;2024-03-17T05:08:54;1.80;;;1.10;;
75928;SDS011;64606;44.062;2.986;2024-03-17T05:11:21;1.00;;;0.90;;
75928;SDS011;64606;44.062;2.986;2024-03-17T05:13:49;1.45;;;0.90;;
75928;SDS011;64606;44.062;2.986;2024-03-17T05:16:15;1.70;;;1.00;;
75928;SDS011;64606;44.062;2.986;2024-03-17T05:18:41;2.92;;;0.90;;
75928;SDS011;64606;44.062;2.986;2024-03-17T05:21:08;1.90;;;1.05;;
75928;SDS011;64606;44.062;2.986;2024-03-17T05:23:35;1.10;;;0.95;;
75928;SDS011;64606;44.062;2.986;2024-03-17T05:26:02;1.88;;;1.00;;
75928;SDS011;64606;44.062;2.986;2024-03-17T05:28:29;1.70;;;1.00;;
75928;SDS011;64606;44.062;2.986;2024-03-17T05:30:56;1.60;;;0.98;;
75928;SDS011;64606;44.062;2.986;2024-03-17T05:33:22;3.10;;;0.88;;
75928;SDS011;64606;44.062;2.986;2024-03-17T05:35:53;1.33;;;0.90;;
75928;SDS011;64606;44.062;2.986;2024-03-17T05:38:20;1.50;;;1.20;;
75928;SDS011;64606;44.062;2.986;2024-03-17T05:43:28;1.52;;;1.05;;
75928;SDS011;64606;44.062;2.986;2024-03-17T05:45:58;1.90;;;1.20;;
75928;SDS011;64606;44.062;2.986;2024-03-17T05:48:25;1.13;;;0.70;;
75928;SDS011;64606;44.062;2.986;2024-03-17T05:50:51;2.33;;;1.10;;
75928;SDS011;64606;44.062;2.986;2024-03-17T05:53:17;3.53;;;1.42;;
75928;SDS011;64606;44.062;2.986;2024-03-17T05:55:44;2.55;;;1.30;;
75928;SDS011;64606;44.062;2.986;2024-03-17T05:58:10;4.07;;;1.50;;
75928;SDS011;64606;44.062;2.986;2024-03-17T06:00:37;2.40;;;1.10;;
75928;SDS011;64606;44.062;2.986;2024-03-17T06:03:04;3.60;;;1.40;;
75928;SDS011;64606;44.062;2.986;2024-03-17T06:05:36;2.55;;;1.50;;
75928;SDS011;64606;44.062;2.986;2024-03-17T06:08:03;2.03;;;1.50;;
75928;SDS011;64606;44.062;2.986;2024-03-17T06:10:31;2.55;;;1.40;;
75928;SDS011;64606;44.062;2.986;2024-03-17T06:12:58;2.80;;;1.35;;
75928;SDS011;64606;44.062;2.986;2024-03-17T06:15:25;2.75;;;1.30;;
75928;SDS011;64606;44.062;2.986;2024-03-17T06:17:51;2.20;;;1.42;;
75928;SDS011;64606;44.062;2.986;2024-03-17T06:20:21;2.30;;;1.30;;
75928;SDS011;64606;44.062;2.986;2024-03-17T06:22:48;1.45;;;1.13;;
75928;SDS011;64606;44.062;2.986;2024-03-17T06:25:15;2.08;;;1.10;;
75928;SDS011;64606;44.062;2.986;2024-03-17T06:27:41;1.95;;;0.98;;
75928;SDS011;64606;44.062;2.986;2024-03-17T06:30:13;1.90;;;1.13;;
75928;SDS011;64606;44.062;2.986;2024-03-17T06:32:40;2.13;;;1.17;;
75928;SDS011;64606;44.062;2.986;2024-03-17T06:35:07;3.08;;;1.40;;
75928;SDS011;64606;44.062;2.986;2024-03-17T06:37:33;1.95;;;1.30;;
75928;SDS011;64606;44.062;2.986;2024-03-17T06:39:59;2.20;;;1.23;;
75928;SDS011;64606;44.062;2.986;2024-03-17T06:42:26;2.45;;;1.00;;
75928;SDS011;64606;44.062;2.986;2024-03-17T06:44:52;2.67;;;1.20;;
75928;SDS011;64606;44.062;2.986;2024-03-17T06:47:18;2.97;;;1.10;;
75928;SDS011;64606;44.062;2.986;2024-03-17T06:49:44;2.25;;;1.20;;
75928;SDS011;64606;44.062;2.986;2024-03-17T06:52:10;2.75;;;1.40;;
75928;SDS011;64606;44.062;2.986;2024-03-17T06:54:37;2.05;;;1.10;;
75928;SDS011;64606;44.062;2.986;2024-03-17T06:57:03;3.78;;;1.33;;
75928;SDS011;64606;44.062;2.986;2024-03-17T06:59:32;2.22;;;1.35;;
75928;SDS011;64606;44.062;2.986;2024-03-17T07:01:58;1.75;;;1.15;;
75928;SDS011;64606;44.062;2.986;2024-03-17T07:04:24;2.33;;;1.00;;
75928;SDS011;64606;44.062;2.986;2024-03-17T07:06:51;1.65;;;1.00;;
75928;SDS011;64606;44.062;2.986;2024-03-17T07:09:17;1.90;;;1.20;;
75928;SDS011;64606;44.062;2.986;2024-03-17T07:11:43;3.47;;;1.48;;
75928;SDS011;64606;44.062;2.986;2024-03-17T07:14:10;2.30;;;1.30;;
75928;SDS011;64606;44.062;2.986;2024-03-17T07:16:36;1.38;;;1.02;;
75928;SDS011;64606;44.062;2.986;2024-03-17T07:19:02;1.65;;;1.00;;
75928;SDS011;64606;44.062;2.986;2024-03-17T07:21:30;2.13;;;1.20;;
75928;SDS011;64606;44.062;2.986;2024-03-17T07:23:59;4.07;;;1.50;;
75928;SDS011;64606;44.062;2.986;2024-03-17T07:26:29;3.05;;;1.40;;
75928;SDS011;64606;44.062;2.986;2024-03-17T07:28:56;2.00;;;1.10;;
75928;SDS011;64606;44.062;2.986;2024-03-17T07:31:22;2.25;;;0.98;;
75928;SDS011;64606;44.062;2.986;2024-03-17T07:33:48;1.70;;;1.23;;
75928;SDS011;64606;44.062;2.986;2024-03-17T07:36:14;1.55;;;1.05;;
75928;SDS011;64606;44.062;2.986;2024-03-17T07:38:41;1.98;;;1.20;;
75928;SDS011;64606;44.062;2.986;2024-03-17T07:41:07;3.30;;;1.13;;
75928;SDS011;64606;44.062;2.986;2024-03-17T07:43:38;1.90;;;1.00;;
75928;SDS011;64606;44.062;2.986;2024-03-17T07:46:05;1.65;;;0.90;;
75928;SDS011;64606;44.062;2.986;2024-03-17T07:48:32;1.88;;;1.10;;
75928;SDS011;64606;44.062;2.986;2024-03-17T07:50:59;1.58;;;1.13;;
75928;SDS011;64606;44.062;2.986;2024-03-17T07:53:32;2.58;;;1.20;;
75928;SDS011;64606;44.062;2.986;2024-03-17T07:56:05;2.40;;;1.60;;
75928;SDS011;64606;44.062;2.986;2024-03-17T07:58:35;2.83;;;1.40;;
75928;SDS011;64606;44.062;2.986;2024-03-17T08:01:04;2.25;;;1.50;;
75928;SDS011;64606;44.062;2.986;2024-03-17T08:03:30;3.42;;;1.50;;
75928;SDS011;64606;44.062;2.986;2024-03-17T08:05:57;5.43;;;1.40;;
75928;SDS011;64606;44.062;2.986;2024-03-17T08:08:23;3.75;;;1.75;;
75928;SDS011;64606;44.062;2.986;2024-03-17T08:10:50;3.25;;;1.38;;
75928;SDS011;64606;44.062;2.986;2024-03-17T08:13:20;3.90;;;1.33;;
75928;SDS011;64606;44.062;2.986;2024-03-17T08:15:54;2.55;;;1.40;;
75928;SDS011;64606;44.062;2.986;2024-03-17T08:18:20;2.63;;;1.53;;
75928;SDS011;64606;44.062;2.986;2024-03-17T08:20:47;2.47;;;1.00;;
75928;SDS011;64606;44.062;2.986;2024-03-17T08:23:13;3.00;;;1.50;;
75928;SDS011;64606;44.062;2.986;2024-03-17T08:25:39;3.17;;;1.33;;
75928;SDS011;64606;44.062;2.986;2024-03-17T08:28:06;3.45;;;1.48;;
75928;SDS011;64606;44.062;2.986;2024-03-17T08:30:32;2.33;;;1.20;;
75928;SDS011;64606;44.062;2.986;2024-03-17T08:32:59;2.35;;;1.30;;
75928;SDS011;64606;44.062;2.986;2024-03-17T08:35:25;2.13;;;1.23;;
75928;SDS011;64606;44.062;2.986;2024-03-17T08:37:51;2.05;;;1.23;;
75928;SDS011;64606;44.062;2.986;2024-03-17T08:40:20;3.00;;;1.48;;
75928;SDS011;64606;44.062;2.986;2024-03-17T08:42:46;1.95;;;1.20;;
75928;SDS011;64606;44.062;2.986;2024-03-17T08:45:12;3.15;;;1.23;;
75928;SDS011;64606;44.062;2.986;2024-03-17T08:47:39;2.55;;;1.25;;
75928;SDS011;64606;44.062;2.986;2024-03-17T08:50:05;1.95;;;0.98;;
75928;SDS011;64606;44.062;2.986;2024-03-17T08:52:33;4.60;;;1.13;;
75928;SDS011;64606;44.062;2.986;2024-03-17T08:55:00;1.95;;;1.10;;
75928;SDS011;64606;44.062;2.986;2024-03-17T08:57:34;4.38;;;1.25;;
75928;SDS011;64606;44.062;2.986;2024-03-17T09:00:00;3.55;;;1.20;;
75928;SDS011;64606;44.062;2.986;2024-03-17T09:02:27;2.45;;;1.20;;
75928;SDS011;64606;44.062;2.986;2024-03-17T09:04:53;4.15;;;1.40;;
75928;SDS011;64606;44.062;2.986;2024-03-17T09:07:19;3.25;;;1.60;;
75928;SDS011;64606;44.062;2.986;2024-03-17T09:09:48;3.22;;;1.48;;
75928;SDS011;64606;44.062;2.986;2024-03-17T09:12:15;3.58;;;1.60;;
75928;SDS011;64606;44.062;2.986;2024-03-17T09:14:41;5.88;;;1.63;;
75928;SDS011;64606;44.062;2.986;2024-03-17T09:17:07;3.95;;;1.20;;
75928;SDS011;64606;44.062;2.986;2024-03-17T09:19:34;3.10;;;1.45;;
75928;SDS011;64606;44.062;2.986;2024-03-17T09:22:00;3.78;;;1.50;;
75928;SDS011;64606;44.062;2.986;2024-03-17T09:24:26;2.40;;;1.40;;
75928;SDS011;64606;44.062;2.986;2024-03-17T09:26:52;4.38;;;1.30;;
75928;SDS011;64606;44.062;2.986;2024-03-17T09:29:18;3.95;;;1.50;;
75928;SDS011;64606;44.062;2.986;2024-03-17T09:31:45;3.90;;;1.35;;
75928;SDS011;64606;44.062;2.986;2024-03-17T09:34:11;3.53;;;1.48;;
75928;SDS011;64606;44.062;2.986;2024-03-17T09:36:37;2.88;;;1.45;;
75928;SDS011;64606;44.062;2.986;2024-03-17T09:39:03;4.57;;;1.45;;
75928;SDS011;64606;44.062;2.986;2024-03-17T09:41:30;3.95;;;1.45;;
75928;SDS011;64606;44.062;2.986;2024-03-17T09:43:57;2.95;;;1.30;;
75928;SDS011;64606;44.062;2.986;2024-03-17T09:46:24;3.55;;;1.63;;
75928;SDS011;64606;44.062;2.986;2024-03-17T09:48:57;2.63;;;1.25;;
75928;SDS011;64606;44.062;2.986;2024-03-17T09:51:24;14.00;;;1.60;;
75928;SDS011;64606;44.062;2.986;2024-03-17T09:53:51;5.95;;;1.40;;
75928;SDS011;64606;44.062;2.986;2024-03-17T09:56:18;3.85;;;1.20;;
75928;SDS011;64606;44.062;2.986;2024-03-17T09:58:45;5.97;;;1.58;;
75928;SDS011;64606;44.062;2.986;2024-03-17T10:01:12;7.55;;;1.50;;
75928;SDS011;64606;44.062;2.986;2024-03-17T10:06:11;23.70;;;2.60;;
75928;SDS011;64606;44.062;2.986;2024-03-17T10:08:47;9.35;;;1.80;;
75928;SDS011;64606;44.062;2.986;2024-03-17T10:11:14;23.70;;;2.08;;
75928;SDS011;64606;44.062;2.986;2024-03-17T10:13:41;17.92;;;2.15;;
75928;SDS011;64606;44.062;2.986;2024-03-17T10:19:16;12.85;;;1.58;;
75928;SDS011;64606;44.062;2.986;2024-03-17T10:21:47;13.48;;;2.45;;
75928;SDS011;64606;44.062;2.986;2024-03-17T10:24:20;11.82;;;1.95;;
75928;SDS011;64606;44.062;2.986;2024-03-17T10:26:50;14.00;;;1.40;;
75928;SDS011;64606;44.062;2.986;2024-03-17T10:29:20;5.35;;;1.50;;
75928;SDS011;64606;44.062;2.986;2024-03-17T10:31:52;11.82;;;1.85;;
75928;SDS011;64606;44.062;2.986;2024-03-17T10:34:25;6.03;;;1.33;;
75928;SDS011;64606;44.062;2.986;2024-03-17T10:37:15;6.80;;;1.60;;
75928;SDS011;64606;44.062;2.986;2024-03-17T10:39:40;4.72;;;1.85;;
75928;SDS011;64606;44.062;2.986;2024-03-17T10:42:07;8.38;;;1.70;;
75928;SDS011;64606;44.062;2.986;2024-03-17T10:44:34;13.52;;;1.50;;
75928;SDS011;64606;44.062;2.986;2024-03-17T10:47:02;9.40;;;1.83;;
75928;SDS011;64606;44.062;2.986;2024-03-17T10:49:33;8.02;;;1.70;;
75928;SDS011;64606;44.062;2.986;2024-03-17T10:52:03;4.97;;;1.50;;
75928;SDS011;64606;44.062;2.986;2024-03-17T10:54:30;8.52;;;1.80;;
75928;SDS011;64606;44.062;2.986;2024-03-17T10:57:02;6.72;;;1.58;;
75928;SDS011;64606;44.062;2.986;2024-03-17T10:59:40;10.73;;;1.75;;
75928;SDS011;64606;44.062;2.986;2024-03-17T11:02:26;5.15;;;1.48;;
75928;SDS011;64606;44.062;2.986;2024-03-17T11:05:18;5.60;;;1.67;;
75928;SDS011;64606;44.062;2.986;2024-03-17T11:07:45;10.65;;;1.73;;
75928;SDS011;64606;44.062;2.986;2024-03-17T11:10:15;5.07;;;1.52;;
75928;SDS011;64606;44.062;2.986;2024-03-17T11:12:46;6.47;;;1.40;;
75928;SDS011;64606;44.062;2.986;2024-03-17T11:17:43;9.23;;;1.50;;
75928;SDS011;64606;44.062;2.986;2024-03-17T11:20:20;10.05;;;1.50;;
75928;SDS011;64606;44.062;2.986;2024-03-17T11:22:54;9.40;;;1.60;;
75928;SDS011;64606;44.062;2.986;2024-03-17T11:28:04;5.97;;;1.38;;
75928;SDS011;64606;44.062;2.986;2024-03-17T11:35:51;6.10;;;1.63;;
75928;SDS011;64606;44.062;2.986;2024-03-17T11:43:47;3.92;;;1.60;;
75928;SDS011;64606;44.062;2.986;2024-03-17T11:46:14;6.15;;;1.70;;
75928;SDS011;64606;44.062;2.986;2024-03-17T11:48:44;12.45;;;2.22;;
75928;SDS011;64606;44.062;2.986;2024-03-17T11:51:11;13.40;;;1.70;;
75928;SDS011;64606;44.062;2.986;2024-03-17T11:53:37;17.02;;;2.33;;
75928;SDS011;64606;44.062;2.986;2024-03-17T11:56:03;17.17;;;2.03;;
75928;SDS011;64606;44.062;2.986;2024-03-17T11:58:30;7.95;;;2.00;;
75928;SDS011;64606;44.062;2.986;2024-03-17T12:00:58;17.75;;;2.40;;
75928;SDS011;64606;44.062;2.986;2024-03-17T12:03:25;11.88;;;1.85;;
75928;SDS011;64606;44.062;2.986;2024-03-17T12:05:51;12.57;;;2.13;;
75928;SDS011;64606;44.062;2.986;2024-03-17T12:08:20;9.25;;;1.85;;
75928;SDS011;64606;44.062;2.986;2024-03-17T12:10:47;10.95;;;2.28;;
75928;SDS011;64606;44.062;2.986;2024-03-17T12:13:13;9.45;;;2.03;;
75928;SDS011;64606;44.062;2.986;2024-03-17T12:15:39;7.03;;;1.80;;
75928;SDS011;64606;44.062;2.986;2024-03-17T12:18:19;8.02;;;2.17;;
75928;SDS011;64606;44.062;2.986;2024-03-17T12:20:47;7.88;;;1.98;;
75928;SDS011;64606;44.062;2.986;2024-03-17T12:23:13;12.40;;;2.22;;
75928;SDS011;64606;44.062;2.986;2024-03-17T12:25:48;9.98;;;1.77;;
75928;SDS011;64606;44.062;2.986;2024-03-17T12:28:15;7.60;;;1.70;;
75928;SDS011;64606;44.062;2.986;2024-03-17T12:30:42;8.07;;;1.88;;
75928;SDS011;64606;44.062;2.986;2024-03-17T12:33:10;16.92;;;2.28;;
75928;SDS011;64606;44.062;2.986;2024-03-17T12:35:38;10.82;;;1.90;;
75928;SDS011;64606;44.062;2.986;2024-03-17T12:38:26;9.30;;;1.92;;
75928;SDS011;64606;44.062;2.986;2024-03-17T12:40:51;8.82;;;1.55;;
75928;SDS011;64606;44.062;2.986;2024-03-17T12:43:18;10.38;;;1.75;;
75928;SDS011;64606;44.062;2.986;2024-03-17T12:45:44;15.23;;;2.22;;
75928;SDS011;64606;44.062;2.986;2024-03-17T12:48:17;6.22;;;1.80;;
75928;SDS011;64606;44.062;2.986;2024-03-17T12:50:52;8.60;;;1.92;;
75928;SDS011;64606;44.062;2.986;2024-03-17T12:53:21;8.13;;;2.00;;
75928;SDS011;64606;44.062;2.986;2024-03-17T12:55:54;9.00;;;2.10;;
75928;SDS011;64606;44.062;2.986;2024-03-17T12:58:38;10.27;;;2.00;;
75928;SDS011;64606;44.062;2.986;2024-03-17T13:01:23;9.60;;;2.15;;
75928;SDS011;64606;44.062;2.986;2024-03-17T13:03:49;13.55;;;1.88;;
75928;SDS011;64606;44.062;2.986;2024-03-17T13:06:22;8.75;;;1.65;;
75928;SDS011;64606;44.062;2.986;2024-03-17T13:08:52;9.00;;;1.80;;
75928;SDS011;64606;44.062;2.986;2024-03-17T13:11:18;11.43;;;2.03;;
75928;SDS011;64606;44.062;2.986;2024-03-17T13:13:44;11.48;;;2.38;;
75928;SDS011;64606;44.062;2.986;2024-03-17T13:16:10;10.98;;;2.10;;
75928;SDS011;64606;44.062;2.986;2024-03-17T13:18:39;11.50;;;2.20;;
75928;SDS011;64606;44.062;2.986;2024-03-17T13:21:05;7.28;;;2.05;;
75928;SDS011;64606;44.062;2.986;2024-03-17T13:23:31;10.45;;;1.85;;
75928;SDS011;64606;44.062;2.986;2024-03-17T13:25:57;12.02;;;2.50;;
75928;SDS011;64606;44.062;2.986;2024-03-17T13:28:23;10.95;;;1.77;;
75928;SDS011;64606;44.062;2.986;2024-03-17T13:30:49;10.50;;;1.98;;
75928;SDS011;64606;44.062;2.986;2024-03-17T13:33:15;8.75;;;2.03;;
75928;SDS011;64606;44.062;2.986;2024-03-17T13:35:43;4.82;;;1.90;;
75928;SDS011;64606;44.062;2.986;2024-03-17T13:38:09;10.93;;;2.05;;
75928;SDS011;64606;44.062;2.986;2024-03-17T13:40:36;9.85;;;2.20;;
75928;SDS011;64606;44.062;2.986;2024-03-17T13:43:03;4.55;;;1.80;;
75928;SDS011;64606;44.062;2.986;2024-03-17T13:45:48;8.45;;;1.88;;
75928;SDS011;64606;44.062;2.986;2024-03-17T13:48:14;9.60;;;2.53;;
75928;SDS011;64606;44.062;2.986;2024-03-17T13:50:40;7.32;;;1.92;;
75928;SDS011;64606;44.062;2.986;2024-03-17T13:53:12;7.88;;;2.13;;
75928;SDS011;64606;44.062;2.986;2024-03-17T13:55:38;7.70;;;2.30;;
75928;SDS011;64606;44.062;2.986;2024-03-17T13:58:04;5.30;;;1.83;;
75928;SDS011;64606;44.062;2.986;2024-03-17T14:00:31;5.90;;;1.98;;
75928;SDS011;64606;44.062;2.986;2024-03-17T14:03:01;7.57;;;1.85;;
75928;SDS011;64606;44.062;2.986;2024-03-17T14:05:27;5.25;;;1.75;;
75928;SDS011;64606;44.062;2.986;2024-03-17T14:07:53;6.90;;;2.17;;
75928;SDS011;64606;44.062;2.986;2024-03-17T14:10:20;8.40;;;2.22;;
75928;SDS011;64606;44.062;2.986;2024-03-17T14:12:47;4.93;;;1.63;;
75928;SDS011;64606;44.062;2.986;2024-03-17T14:15:13;5.82;;;1.80;;
75928;SDS011;64606;44.062;2.986;2024-03-17T14:17:44;4.75;;;1.70;;
75928;SDS011;64606;44.062;2.986;2024-03-17T14:20:10;6.60;;;1.98;;
75928;SDS011;64606;44.062;2.986;2024-03-17T14:22:37;6.35;;;2.03;;
75928;SDS011;64606;44.062;2.986;2024-03-17T14:25:06;7.78;;;2.63;;
75928;SDS011;64606;44.062;2.986;2024-03-17T14:27:32;4.53;;;1.60;;
75928;SDS011;64606;44.062;2.986;2024-03-17T14:29:59;5.70;;;1.63;;
75928;SDS011;64606;44.062;2.986;2024-03-17T14:32:25;3.28;;;1.60;;
75928;SDS011;64606;44.062;2.986;2024-03-17T14:34:53;4.75;;;1.90;;
75928;SDS011;64606;44.062;2.986;2024-03-17T14:37:19;10.18;;;1.75;;
75928;SDS011;64606;44.062;2.986;2024-03-17T14:39:47;5.22;;;1.52;;
75928;SDS011;64606;44.062;2.986;2024-03-17T14:42:14;6.80;;;1.80;;
75928;SDS011;64606;44.062;2.986;2024-03-17T14:44:40;5.18;;;1.73;;
75928;SDS011;64606;44.062;2.986;2024-03-17T14:47:06;4.50;;;1.73;;
75928;SDS011;64606;44.062;2.986;2024-03-17T14:49:33;4.47;;;1.75;;
75928;SDS011;64606;44.062;2.986;2024-03-17T14:51:59;3.67;;;1.55;;
75928;SDS011;64606;44.062;2.986;2024-03-17T14:54:25;4.28;;;1.60;;
75928;SDS011;64606;44.062;2.986;2024-03-17T14:56:52;6.35;;;1.77;;
75928;SDS011;64606;44.062;2.986;2024-03-17T14:59:19;4.93;;;1.70;;
75928;SDS011;64606;44.062;2.986;2024-03-17T15:01:45;6.50;;;1.48;;
75928;SDS011;64606;44.062;2.986;2024-03-17T15:04:12;3.53;;;1.42;;
75928;SDS011;64606;44.062;2.986;2024-03-17T15:06:39;2.63;;;1.20;;
75928;SDS011;64606;44.062;2.986;2024-03-17T15:09:06;5.20;;;1.35;;
75928;SDS011;64606;44.062;2.986;2024-03-17T15:11:33;4.60;;;1.58;;
75928;SDS011;64606;44.062;2.986;2024-03-17T15:13:59;3.42;;;1.40;;